sensor_id;sensor_type;location;lat;lon;timestamp;pressure;altitude;pressure_sealevel;temperature;humidity
36242;BME280;22283;42.748;12.732;2022-12-05T00:03:04;98341.22;;;10.44;100.00
36242;BME280;22283;42.748;12.732;2022-12-05T00:08:05;98342.50;;;10.38;100.00
36242;BME280;22283;42.748;12.732;2022-12-05T00:13:06;98354.78;;;10.39;100.00
36242;BME280;22283;42.748;12.732;2022-12-05T00:18:07;98367.16;;;10.39;100.00
36242;BME280;22283;42.748;12.732;2022-12-05T00:23:07;98364.94;;;10.45;100.00
36242;BME280;22283;42.748;12.732;2022-12-05T00:28:08;98358.34;;;10.64;100.00
36242;BME280;22283;42.748;12.732;2022-12-05T00:33:09;98371.25;;;10.68;100.00
36242;BME280;22283;42.748;12.732;2022-12-05T00:38:09;98354.34;;;10.58;100.00
36242;BME280;22283;42.748;12.732;2022-12-05T00:43:10;98346.50;;;10.44;100.00
36242;BME280;22283;42.748;12.732;2022-12-05T00:48:11;98356.06;;;10.33;100.00
36242;BME280;22283;42.748;12.732;2022-12-05T00:53:11;98347.56;;;10.28;100.00
36242;BME280;22283;42.748;12.732;2022-12-05T00:58:12;98329.47;;;10.22;100.00
36242;BME280;22283;42.748;12.732;2022-12-05T01:03:12;98344.75;;;10.17;100.00
36242;BME280;22283;42.748;12.732;2022-12-05T01:08:13;98340.88;;;10.10;100.00
36242;BME280;22283;42.748;12.732;2022-12-05T01:13:14;98343.28;;;10.00;100.00
36242;BME280;22283;42.748;12.732;2022-12-05T01:18:15;98347.09;;;10.09;100.00
36242;BME280;22283;42.748;12.732;2022-12-05T01:23:16;98351.97;;;10.15;100.00
36242;BME280;22283;42.748;12.732;2022-12-05T01:28:17;98353.84;;;10.13;100.00
36242;BME280;22283;42.748;12.732;2022-12-05T01:33:18;98340.75;;;10.24;100.00
36242;BME280;22283;42.748;12.732;2022-12-05T01:38:18;98346.03;;;10.24;100.00
36242;BME280;22283;42.748;12.732;2022-12-05T01:43:19;98334.00;;;10.20;100.00
36242;BME280;22283;42.748;12.732;2022-12-05T01:48:24;98327.22;;;10.16;100.00
36242;BME280;22283;42.748;12.732;2022-12-05T01:53:27;98346.25;;;10.21;100.00
36242;BME280;22283;42.748;12.732;2022-12-05T01:58:29;98345.41;;;10.21;100.00
36242;BME280;22283;42.748;12.732;2022-12-05T02:03:32;98329.38;;;10.37;100.00
36242;BME280;22283;42.748;12.732;2022-12-05T02:08:34;98319.75;;;10.36;100.00
36242;BME280;22283;42.748;12.732;2022-12-05T02:30:22;98358.88;;;10.56;99.04
36242;BME280;22283;42.748;12.732;2022-12-05T02:40:38;98377.63;;;10.53;100.00
36242;BME280;22283;42.748;12.732;2022-12-05T02:45:42;98383.13;;;10.50;100.00
36242;BME280;22283;42.748;12.732;2022-12-05T02:50:46;98362.72;;;10.39;100.00
36242;BME280;22283;42.748;12.732;2022-12-05T02:55:48;98348.63;;;10.26;100.00
36242;BME280;22283;42.748;12.732;2022-12-05T03:00:54;98333.78;;;10.10;100.00
36242;BME280;22283;42.748;12.732;2022-12-05T03:11:32;98363.56;;;10.00;100.00
36242;BME280;22283;42.748;12.732;2022-12-05T03:16:39;98349.97;;;10.06;100.00
36242;BME280;22283;42.748;12.732;2022-12-05T03:27:06;98344.09;;;9.88;100.00
36242;BME280;22283;42.748;12.732;2022-12-05T03:42:51;98353.28;;;9.82;100.00
36242;BME280;22283;42.748;12.732;2022-12-05T03:47:59;98352.53;;;9.80;100.00
36242;BME280;22283;42.748;12.732;2022-12-05T03:53:09;98361.00;;;9.85;100.00
36242;BME280;22283;42.748;12.732;2022-12-05T03:58:18;98351.69;;;9.80;100.00
36242;BME280;22283;42.748;12.732;2022-12-05T04:08:52;98370.25;;;9.66;100.00
36242;BME280;22283;42.748;12.732;2022-12-05T04:14:07;98364.25;;;9.76;100.00
36242;BME280;22283;42.748;12.732;2022-12-05T04:19:16;98376.75;;;9.74;100.00
36242;BME280;22283;42.748;12.732;2022-12-05T04:24:29;98385.50;;;9.75;100.00
36242;BME280;22283;42.748;12.732;2022-12-05T04:30:03;98365.41;;;9.72;100.00
36242;BME280;22283;42.748;12.732;2022-12-05T04:35:10;98369.41;;;9.65;100.00
36242;BME280;22283;42.748;12.732;2022-12-05T04:40:25;98376.16;;;9.42;100.00
36242;BME280;22283;42.748;12.732;2022-12-05T04:45:28;98386.47;;;9.32;100.00
36242;BME280;22283;42.748;12.732;2022-12-05T04:50:32;98376.69;;;9.34;100.00
36242;BME280;22283;42.748;12.732;2022-12-05T04:55:35;98381.09;;;9.34;100.00
36242;BME280;22283;42.748;12.732;2022-12-05T05:00:58;98384.44;;;9.23;100.00
36242;BME280;22283;42.748;12.732;2022-12-05T05:06:02;98382.59;;;9.11;100.00
36242;BME280;22283;42.748;12.732;2022-12-05T05:11:23;98397.16;;;9.31;100.00
36242;BME280;22283;42.748;12.732;2022-12-05T05:16:28;98396.69;;;9.24;100.00
36242;BME280;22283;42.748;12.732;2022-12-05T05:21:34;98395.44;;;9.30;100.00
36242;BME280;22283;42.748;12.732;2022-12-05T05:26:38;98398.72;;;9.33;100.00
36242;BME280;22283;42.748;12.732;2022-12-05T05:31:40;98401.06;;;9.11;100.00
36242;BME280;22283;42.748;12.732;2022-12-05T05:36:41;98395.97;;;9.08;100.00
36242;BME280;22283;42.748;12.732;2022-12-05T05:41:42;98405.19;;;9.15;100.00
36242;BME280;22283;42.748;12.732;2022-12-05T05:46:43;98401.91;;;9.11;100.00
36242;BME280;22283;42.748;12.732;2022-12-05T05:51:44;98417.75;;;9.11;100.00
36242;BME280;22283;42.748;12.732;2022-12-05T05:56:44;98416.59;;;9.16;100.00
36242;BME280;22283;42.748;12.732;2022-12-05T06:01:45;98415.75;;;9.15;100.00
36242;BME280;22283;42.748;12.732;2022-12-05T06:06:46;98420.81;;;9.18;99.43
36242;BME280;22283;42.748;12.732;2022-12-05T06:11:47;98413.66;;;9.34;97.55
36242;BME280;22283;42.748;12.732;2022-12-05T06:16:47;98434.38;;;9.41;96.12
36242;BME280;22283;42.748;12.732;2022-12-05T06:21:49;98433.22;;;9.45;95.53
36242;BME280;22283;42.748;12.732;2022-12-05T06:26:50;98436.63;;;9.47;94.11
36242;BME280;22283;42.748;12.732;2022-12-05T06:31:51;98440.44;;;9.43;94.64
36242;BME280;22283;42.748;12.732;2022-12-05T06:36:52;98424.66;;;9.41;94.84
36242;BME280;22283;42.748;12.732;2022-12-05T06:41:52;98451.88;;;9.56;93.28
36242;BME280;22283;42.748;12.732;2022-12-05T06:46:54;98450.38;;;9.66;92.61
36242;BME280;22283;42.748;12.732;2022-12-05T06:51:55;98438.50;;;9.59;92.15
36242;BME280;22283;42.748;12.732;2022-12-05T06:56:55;98450.09;;;9.56;93.32
36242;BME280;22283;42.748;12.732;2022-12-05T07:01:56;98463.00;;;9.61;92.34
36242;BME280;22283;42.748;12.732;2022-12-05T07:06:57;98452.94;;;9.80;89.97
36242;BME280;22283;42.748;12.732;2022-12-05T07:11:57;98456.84;;;10.02;87.79
36242;BME280;22283;42.748;12.732;2022-12-05T07:16:58;98464.06;;;10.13;86.82
36242;BME280;22283;42.748;12.732;2022-12-05T07:21:59;98460.13;;;10.32;85.20
36242;BME280;22283;42.748;12.732;2022-12-05T07:27:00;98470.09;;;10.42;85.08
36242;BME280;22283;42.748;12.732;2022-12-05T07:32:01;98470.63;;;10.47;84.78
36242;BME280;22283;42.748;12.732;2022-12-05T07:37:01;98480.06;;;10.64;84.05
36242;BME280;22283;42.748;12.732;2022-12-05T07:42:02;98488.97;;;10.88;82.85
36242;BME280;22283;42.748;12.732;2022-12-05T07:47:03;98493.88;;;10.94;81.36
36242;BME280;22283;42.748;12.732;2022-12-05T07:52:04;98486.63;;;11.35;79.84
36242;BME280;22283;42.748;12.732;2022-12-05T07:57:04;98509.69;;;11.58;81.21
36242;BME280;22283;42.748;12.732;2022-12-05T08:02:05;98510.34;;;11.98;78.16
36242;BME280;22283;42.748;12.732;2022-12-05T08:07:09;98506.47;;;12.15;78.11
36242;BME280;22283;42.748;12.732;2022-12-05T08:12:10;98521.09;;;12.45;74.96
36242;BME280;22283;42.748;12.732;2022-12-05T08:17:10;98519.09;;;12.60;74.53
36242;BME280;22283;42.748;12.732;2022-12-05T08:22:11;98516.09;;;12.64;73.84
36242;BME280;22283;42.748;12.732;2022-12-05T08:27:12;98520.44;;;12.65;72.76
36242;BME280;22283;42.748;12.732;2022-12-05T08:32:12;98533.34;;;12.70;71.92
36242;BME280;22283;42.748;12.732;2022-12-05T08:37:13;98529.41;;;12.75;71.17
36242;BME280;22283;42.748;12.732;2022-12-05T08:42:20;98537.38;;;12.87;72.04
36242;BME280;22283;42.748;12.732;2022-12-05T08:47:21;98533.31;;;12.94;70.10
36242;BME280;22283;42.748;12.732;2022-12-05T08:52:22;98526.09;;;13.07;70.07
36242;BME280;22283;42.748;12.732;2022-12-05T08:57:23;98521.59;;;13.43;68.77
36242;BME280;22283;42.748;12.732;2022-12-05T09:02:23;98530.50;;;13.53;68.28
36242;BME280;22283;42.748;12.732;2022-12-05T09:07:24;98515.03;;;13.69;67.56
36242;BME280;22283;42.748;12.732;2022-12-05T09:12:25;98514.78;;;13.84;67.58
36242;BME280;22283;42.748;12.732;2022-12-05T09:17:25;98511.34;;;14.04;66.16
36242;BME280;22283;42.748;12.732;2022-12-05T09:22:26;98513.41;;;14.00;66.58
36242;BME280;22283;42.748;12.732;2022-12-05T09:27:27;98519.97;;;13.85;67.94
36242;BME280;22283;42.748;12.732;2022-12-05T09:32:28;98512.88;;;13.74;69.60
36242;BME280;22283;42.748;12.732;2022-12-05T09:37:30;98515.28;;;13.66;70.10
36242;BME280;22283;42.748;12.732;2022-12-05T09:47:59;98532.88;;;14.01;69.50
36242;BME280;22283;42.748;12.732;2022-12-05T10:20:19;98492.97;;;14.33;67.80
36242;BME280;22283;42.748;12.732;2022-12-05T10:25:25;98499.69;;;14.60;67.88
36242;BME280;22283;42.748;12.732;2022-12-05T10:30:29;98499.84;;;14.79;67.44
36242;BME280;22283;42.748;12.732;2022-12-05T10:35:39;98511.66;;;14.86;65.33
36242;BME280;22283;42.748;12.732;2022-12-05T10:40:42;98503.78;;;14.85;65.45
36242;BME280;22283;42.748;12.732;2022-12-05T10:45:46;98495.22;;;15.02;65.54
36242;BME280;22283;42.748;12.732;2022-12-05T10:50:53;98493.59;;;14.90;64.78
36242;BME280;22283;42.748;12.732;2022-12-05T10:55:54;98489.56;;;14.74;65.17
36242;BME280;22283;42.748;12.732;2022-12-05T11:01:07;98467.53;;;14.72;66.68
36242;BME280;22283;42.748;12.732;2022-12-05T11:11:23;98465.66;;;15.05;65.17
36242;BME280;22283;42.748;12.732;2022-12-05T11:16:30;98456.53;;;15.08;66.19
36242;BME280;22283;42.748;12.732;2022-12-05T11:21:41;98446.59;;;15.10;66.35
36242;BME280;22283;42.748;12.732;2022-12-05T11:26:42;98439.75;;;15.17;66.51
36242;BME280;22283;42.748;12.732;2022-12-05T11:31:50;98434.88;;;15.32;66.38
36242;BME280;22283;42.748;12.732;2022-12-05T11:36:55;98429.78;;;15.59;64.95
36242;BME280;22283;42.748;12.732;2022-12-05T11:42:17;98419.06;;;15.99;64.57
36242;BME280;22283;42.748;12.732;2022-12-05T11:52:56;98398.81;;;16.75;62.71
36242;BME280;22283;42.748;12.732;2022-12-05T12:03:57;98392.19;;;16.79;60.70
36242;BME280;22283;42.748;12.732;2022-12-05T12:30:06;98363.56;;;16.42;63.10
36242;BME280;22283;42.748;12.732;2022-12-05T12:40:52;98340.06;;;17.02;59.91
36242;BME280;22283;42.748;12.732;2022-12-05T12:46:19;98336.72;;;17.00;60.04
36242;BME280;22283;42.748;12.732;2022-12-05T12:51:28;98328.78;;;17.08;58.99
36242;BME280;22283;42.748;12.732;2022-12-05T13:07:02;98329.50;;;16.63;59.31
36242;BME280;22283;42.748;12.732;2022-12-05T13:12:11;98323.66;;;16.31;60.97
36242;BME280;22283;42.748;12.732;2022-12-05T13:17:17;98321.47;;;16.16;60.69
36242;BME280;22283;42.748;12.732;2022-12-05T13:22:21;98323.75;;;15.92;61.21
36242;BME280;22283;42.748;12.732;2022-12-05T13:27:27;98329.06;;;15.82;61.67
36242;BME280;22283;42.748;12.732;2022-12-05T13:32:33;98335.53;;;15.89;62.47
36242;BME280;22283;42.748;12.732;2022-12-05T13:37:44;98335.94;;;15.85;62.01
36242;BME280;22283;42.748;12.732;2022-12-05T13:43:04;98324.00;;;15.69;62.26
36242;BME280;22283;42.748;12.732;2022-12-05T13:48:18;98329.34;;;15.69;62.61
36242;BME280;22283;42.748;12.732;2022-12-05T13:58:44;98336.28;;;15.51;62.55
36242;BME280;22283;42.748;12.732;2022-12-05T14:08:52;98332.38;;;15.55;62.01
36242;BME280;22283;42.748;12.732;2022-12-05T14:13:53;98337.44;;;15.58;63.41
36242;BME280;22283;42.748;12.732;2022-12-05T14:19:11;98335.00;;;15.36;65.03
36242;BME280;22283;42.748;12.732;2022-12-05T14:34:46;98324.88;;;14.80;67.60
36242;BME280;22283;42.748;12.732;2022-12-05T14:39:54;98328.25;;;14.51;69.59
36242;BME280;22283;42.748;12.732;2022-12-05T14:45:02;98317.91;;;14.37;70.85
36242;BME280;22283;42.748;12.732;2022-12-05T14:55:37;98311.31;;;14.10;73.76
36242;BME280;22283;42.748;12.732;2022-12-05T15:00:37;98313.69;;;13.92;74.19
36242;BME280;22283;42.748;12.732;2022-12-05T15:05:38;98328.63;;;13.84;74.41
36242;BME280;22283;42.748;12.732;2022-12-05T15:10:40;98327.47;;;13.65;74.93
36242;BME280;22283;42.748;12.732;2022-12-05T15:15:50;98330.94;;;13.45;76.23
36242;BME280;22283;42.748;12.732;2022-12-05T15:20:58;98334.56;;;13.21;78.24
36242;BME280;22283;42.748;12.732;2022-12-05T15:26:02;98329.66;;;12.94;81.04
36242;BME280;22283;42.748;12.732;2022-12-05T15:31:03;98328.34;;;12.66;83.35
36242;BME280;22283;42.748;12.732;2022-12-05T15:36:04;98312.66;;;12.41;85.10
36242;BME280;22283;42.748;12.732;2022-12-05T15:41:15;98310.94;;;12.28;86.76
36242;BME280;22283;42.748;12.732;2022-12-05T15:46:21;98326.75;;;12.30;87.13
36242;BME280;22283;42.748;12.732;2022-12-05T15:51:33;98326.84;;;12.17;87.88
36242;BME280;22283;42.748;12.732;2022-12-05T15:56:47;98324.38;;;12.03;89.26
36242;BME280;22283;42.748;12.732;2022-12-05T16:02:02;98319.53;;;11.86;90.50
36242;BME280;22283;42.748;12.732;2022-12-05T16:07:10;98326.50;;;11.87;90.65
36242;BME280;22283;42.748;12.732;2022-12-05T16:12:38;98323.75;;;11.64;92.28
36242;BME280;22283;42.748;12.732;2022-12-05T16:17:45;98319.81;;;11.46;94.30
36242;BME280;22283;42.748;12.732;2022-12-05T16:22:47;98320.06;;;11.06;98.30
36242;BME280;22283;42.748;12.732;2022-12-05T16:28:12;98319.19;;;10.81;100.00
36242;BME280;22283;42.748;12.732;2022-12-05T16:33:15;98326.53;;;10.65;100.00
36242;BME280;22283;42.748;12.732;2022-12-05T16:43:26;98312.13;;;10.69;100.00
36242;BME280;22283;42.748;12.732;2022-12-05T16:48:30;98310.44;;;10.43;100.00
36242;BME280;22283;42.748;12.732;2022-12-05T16:53:31;98316.78;;;10.27;100.00
36242;BME280;22283;42.748;12.732;2022-12-05T16:58:34;98317.84;;;10.38;100.00
36242;BME280;22283;42.748;12.732;2022-12-05T17:03:34;98316.03;;;10.25;100.00
36242;BME280;22283;42.748;12.732;2022-12-05T17:08:35;98317.75;;;10.26;100.00
36242;BME280;22283;42.748;12.732;2022-12-05T17:13:36;98314.53;;;10.08;100.00
36242;BME280;22283;42.748;12.732;2022-12-05T17:18:37;98315.81;;;10.03;100.00
36242;BME280;22283;42.748;12.732;2022-12-05T17:23:37;98310.50;;;10.79;99.47
36242;BME280;22283;42.748;12.732;2022-12-05T17:28:38;98326.75;;;10.99;96.35
36242;BME280;22283;42.748;12.732;2022-12-05T17:33:39;98321.94;;;11.17;95.37
36242;BME280;22283;42.748;12.732;2022-12-05T17:38:40;98325.69;;;11.01;95.68
36242;BME280;22283;42.748;12.732;2022-12-05T17:43:40;98326.81;;;10.73;98.60
36242;BME280;22283;42.748;12.732;2022-12-05T17:48:41;98328.75;;;10.46;100.00
36242;BME280;22283;42.748;12.732;2022-12-05T17:53:42;98323.66;;;10.43;100.00
36242;BME280;22283;42.748;12.732;2022-12-05T17:58:47;98330.53;;;10.32;100.00
36242;BME280;22283;42.748;12.732;2022-12-05T18:03:48;98335.69;;;10.21;100.00
36242;BME280;22283;42.748;12.732;2022-12-05T18:08:48;98328.16;;;10.02;100.00
36242;BME280;22283;42.748;12.732;2022-12-05T18:13:49;98330.03;;;9.88;100.00
36242;BME280;22283;42.748;12.732;2022-12-05T18:18:50;98340.31;;;10.05;100.00
36242;BME280;22283;42.748;12.732;2022-12-05T18:23:50;98339.16;;;9.96;100.00
36242;BME280;22283;42.748;12.732;2022-12-05T18:28:51;98347.22;;;9.68;100.00
36242;BME280;22283;42.748;12.732;2022-12-05T18:33:54;98357.16;;;9.64;100.00
36242;BME280;22283;42.748;12.732;2022-12-05T18:38:55;98356.09;;;9.67;100.00
36242;BME280;22283;42.748;12.732;2022-12-05T18:43:57;98351.16;;;9.48;100.00
36242;BME280;22283;42.748;12.732;2022-12-05T18:48:58;98360.53;;;9.66;100.00
36242;BME280;22283;42.748;12.732;2022-12-05T18:53:58;98367.78;;;9.90;100.00
36242;BME280;22283;42.748;12.732;2022-12-05T18:59:09;98369.63;;;10.02;100.00
36242;BME280;22283;42.748;12.732;2022-12-05T19:04:13;98361.47;;;10.05;100.00
36242;BME280;22283;42.748;12.732;2022-12-05T19:09:16;98361.88;;;9.99;100.00
36242;BME280;22283;42.748;12.732;2022-12-05T19:14:18;98370.72;;;9.85;100.00
36242;BME280;22283;42.748;12.732;2022-12-05T19:19:19;98381.03;;;9.63;100.00
36242;BME280;22283;42.748;12.732;2022-12-05T19:24:20;98377.16;;;9.54;100.00
36242;BME280;22283;42.748;12.732;2022-12-05T19:29:21;98378.53;;;9.47;100.00
36242;BME280;22283;42.748;12.732;2022-12-05T19:34:22;98369.31;;;9.40;100.00
36242;BME280;22283;42.748;12.732;2022-12-05T19:39:23;98361.22;;;9.28;100.00
36242;BME280;22283;42.748;12.732;2022-12-05T19:44:29;98355.34;;;9.38;100.00
36242;BME280;22283;42.748;12.732;2022-12-05T19:49:29;98364.25;;;9.49;100.00
36242;BME280;22283;42.748;12.732;2022-12-05T19:54:30;98351.81;;;9.78;100.00
36242;BME280;22283;42.748;12.732;2022-12-05T19:59:30;98341.34;;;9.90;100.00
36242;BME280;22283;42.748;12.732;2022-12-05T20:04:32;98344.88;;;10.03;100.00
36242;BME280;22283;42.748;12.732;2022-12-05T20:09:32;98349.78;;;10.22;100.00
36242;BME280;22283;42.748;12.732;2022-12-05T20:14:34;98353.50;;;10.45;100.00
36242;BME280;22283;42.748;12.732;2022-12-05T20:19:34;98366.28;;;10.64;98.47
36242;BME280;22283;42.748;12.732;2022-12-05T20:24:35;98358.34;;;10.76;95.53
36242;BME280;22283;42.748;12.732;2022-12-05T20:29:36;98351.97;;;10.92;93.89
36242;BME280;22283;42.748;12.732;2022-12-05T20:34:39;98351.34;;;11.01;92.33
36242;BME280;22283;42.748;12.732;2022-12-05T20:39:39;98350.91;;;10.94;92.85
36242;BME280;22283;42.748;12.732;2022-12-05T20:44:40;98350.94;;;10.81;94.36
36242;BME280;22283;42.748;12.732;2022-12-05T20:49:41;98338.66;;;10.68;94.53
36242;BME280;22283;42.748;12.732;2022-12-05T20:54:41;98345.56;;;10.70;93.45
36242;BME280;22283;42.748;12.732;2022-12-05T20:59:42;98341.63;;;10.76;92.74
36242;BME280;22283;42.748;12.732;2022-12-05T21:04:43;98331.66;;;10.79;91.90
36242;BME280;22283;42.748;12.732;2022-12-05T21:09:44;98345.09;;;10.89;91.20
36242;BME280;22283;42.748;12.732;2022-12-05T21:14:44;98337.75;;;10.93;90.74
36242;BME280;22283;42.748;12.732;2022-12-05T21:19:45;98336.91;;;11.05;89.66
36242;BME280;22283;42.748;12.732;2022-12-05T21:24:46;98328.16;;;11.28;87.24
36242;BME280;22283;42.748;12.732;2022-12-05T21:29:46;98319.88;;;11.33;85.36
36242;BME280;22283;42.748;12.732;2022-12-05T21:34:48;98335.75;;;11.33;84.38
36242;BME280;22283;42.748;12.732;2022-12-05T21:39:48;98330.81;;;11.16;84.98
36242;BME280;22283;42.748;12.732;2022-12-05T21:44:49;98331.22;;;10.98;85.88
36242;BME280;22283;42.748;12.732;2022-12-05T21:49:50;98331.97;;;10.88;86.87
36242;BME280;22283;42.748;12.732;2022-12-05T21:54:50;98328.91;;;10.94;85.46
36242;BME280;22283;42.748;12.732;2022-12-05T21:59:52;98329.09;;;10.91;86.03
36242;BME280;22283;42.748;12.732;2022-12-05T22:04:53;98338.13;;;10.75;86.37
36242;BME280;22283;42.748;12.732;2022-12-05T22:09:54;98334.00;;;10.71;86.60
36242;BME280;22283;42.748;12.732;2022-12-05T22:14:55;98333.34;;;10.80;85.74
36242;BME280;22283;42.748;12.732;2022-12-05T22:19:55;98334.81;;;10.84;84.51
36242;BME280;22283;42.748;12.732;2022-12-05T22:24:57;98338.13;;;10.75;85.01
36242;BME280;22283;42.748;12.732;2022-12-05T22:29:58;98333.28;;;10.69;85.64
36242;BME280;22283;42.748;12.732;2022-12-05T22:34:58;98328.53;;;10.62;86.25
36242;BME280;22283;42.748;12.732;2022-12-05T22:39:59;98315.84;;;10.54;86.43
36242;BME280;22283;42.748;12.732;2022-12-05T22:45:00;98312.22;;;10.55;85.98
36242;BME280;22283;42.748;12.732;2022-12-05T22:50:01;98305.78;;;10.59;86.33
36242;BME280;22283;42.748;12.732;2022-12-05T22:55:01;98295.91;;;10.61;85.39
36242;BME280;22283;42.748;12.732;2022-12-05T23:00:04;98292.13;;;10.65;85.21
36242;BME280;22283;42.748;12.732;2022-12-05T23:05:06;98298.44;;;10.75;84.04
36242;BME280;22283;42.748;12.732;2022-12-05T23:10:07;98287.94;;;10.87;82.98
36242;BME280;22283;42.748;12.732;2022-12-05T23:15:08;98286.53;;;10.94;83.06
36242;BME280;22283;42.748;12.732;2022-12-05T23:20:09;98283.16;;;10.92;84.17
36242;BME280;22283;42.748;12.732;2022-12-05T23:25:10;98267.72;;;10.86;85.16
36242;BME280;22283;42.748;12.732;2022-12-05T23:30:11;98271.75;;;10.78;87.21
36242;BME280;22283;42.748;12.732;2022-12-05T23:35:12;98274.75;;;10.74;86.85
36242;BME280;22283;42.748;12.732;2022-12-05T23:40:14;98281.53;;;10.65;87.29
36242;BME280;22283;42.748;12.732;2022-12-05T23:45:15;98271.16;;;10.62;86.09
36242;BME280;22283;42.748;12.732;2022-12-05T23:50:16;98272.09;;;10.74;82.78
36242;BME280;22283;42.748;12.732;2022-12-05T23:55:17;98265.38;;;10.94;80.13
